Aviation Digital Data Service (ADDS)

Output produced by METARs form (0557 UTC 29 May 2017)
found at http://www.aviationweather.gov/adds/metars/
 
KABQ 290536Z 2906/3006 14010KT P6SM BKN150 
     FM291200 08012KT P6SM FEW090 
     FM291900 20008KT P6SM FEW080 
     FM300100 08015G25KT P6SM VCSH SCT100 
     FM300400 08012KT P6SM SCT100
       
KABY 290532Z 2906/3006 23008KT P6SM SCT250 
     FM291200 25007KT P6SM SCT025 BKN250 
     FM291700 24008G13KT P6SM BKN040 
     FM292200 26008KT P6SM VCTS BKN050CB
       
KACT 290520Z 2906/3006 01006KT P6SM VCSH SCT025 OVC180 
     TEMPO 2908/2912 BKN025 
     FM291200 02006KT P6SM SCT025 BKN050 
     FM292300 08005KT P6SM BKN100
       
KACV 290520Z 2906/3006 33004KT P6SM OVC010 
     FM290800 VRB03KT 4SM BR OVC006 
     FM291200 VRB03KT 1SM BR OVC003 
     FM291700 31005KT 6SM BR OVC008 
     FM292000 31008KT P6SM OVC015 
     FM300400 VRB05KT 5SM BR OVC007
       
TAF KADW 290100Z 2901/3007 VRB06KT 6000 -SHRA BR OVC005 QNH2982INS 
     BECMG 2905/2906 VRB06KT 8000 BR OVC007 QNH2982INS 
     BECMG 2914/2915 28010G15KT 9999 NSW BKN010 QNH2990INS 
     BECMG 2916/2917 30012G18KT 9999 FEW030 QNH2990INS 
     BECMG 2922/2923 29009KT 9999 FEW050 QNH2995INS 
     BECMG 3004/3005 VRB06KT 8000 BR SCT007 QNH3006INS TX27/2921Z TN15/2910Z
       
KAEG 290536Z 2906/3006 14007KT P6SM BKN130 
     FM291000 36006KT P6SM FEW080 
     FM291500 15009KT P6SM FEW080 
     FM292300 27010KT P6SM VCSH SCT090 
     FM300200 25010KT P6SM SCT100
       
KAEX 290520Z 2906/3006 VRB05KT P6SM -RA VCTS FEW035CB BKN100 
     FM290800 VRB05KT P6SM BKN070 
     FM291500 VRB05KT P6SM VCTS SCT025CB
       
KAFW 290520Z 2906/3006 02005KT P6SM OVC200 
     FM291200 02005KT P6SM FEW015 BKN180 
     FM292200 08007KT P6SM SCT090
       
KAGC 290522Z 2906/3006 21005KT P6SM -SHRA SCT025 OVC035 
     TEMPO 2906/2909 5SM -SHRA BKN025 
     FM290900 23006KT P6SM VCSH BKN025 
     FM291200 28012KT P6SM SCT100 
     FM300300 20005KT P6SM SCT100
       
KAGS 290529Z 2906/3006 25004KT P6SM SCT250 
     FM291400 29007KT P6SM BKN250 
     FM292100 25010KT P6SM VCSH SCT040 BKN150
       
KAHN 290545Z 2906/3006 26003KT P6SM BKN250 
     FM291400 26008KT P6SM SCT035 SCT150 
     FM291800 26010KT P6SM BKN050 
     PROB30 2919/2923 4SM -TSRA BR BKN025CB 
     FM300000 24006KT P6SM VCSH SCT060 BKN120
       
KAIA 290535Z 2906/3006 27006KT P6SM BKN150 
     FM291700 31013G23KT P6SM SCT080 
     FM300000 35006KT P6SM SCT150
       
KALB 290520Z 2906/3006 16010G15KT P6SM BKN070 
     FM291300 15010G19KT 5SM -RA BR OVC050 
     FM291600 16007KT 4SM -RA BR SCT015 OVC025 
     FM291900 15007KT 6SM -SHRA BR OVC015 
     FM300300 15004KT P6SM SCT010 BKN025
       
KALS 290520Z 2906/3006 VRB06KT P6SM FEW120 
     FM291800 26010KT P6SM FEW060 SCT150 
     FM300100 11012KT P6SM SCT060 BKN100 
     FM300400 VRB06KT P6SM FEW060 BKN100
       
KALW 290520Z 2906/3006 11006KT P6SM SKC 
     FM291700 25006KT P6SM FEW090
       
KAMA 290525Z 2906/3006 VRB06KT P6SM SKC 
     FM291500 20010KT P6SM SKC 
     FM300200 VRB06KT P6SM BKN060
       
KANB 290520Z 2906/3006 22003KT P6SM OVC250 
     FM291100 22003KT P6SM VCSH BKN080 
     FM291700 25006KT P6SM VCTS BKN040CB
       
KAND 290532Z 2906/3006 26004KT P6SM FEW250 
     FM291600 26007KT P6SM SCT040 
     FM291800 25008KT P6SM BKN040 
     PROB30 2919/3001 4SM -TSRA OVC025CB 
     FM300300 25004KT P6SM BKN090
       
KAOO 290546Z 2906/3006 17009KT P6SM VCSH BKN009 BKN015 OVC035 
     TEMPO 2906/2908 4SM TSRA BR OVC025CB 
     FM290800 18007KT P6SM VCSH OVC009 
     FM291000 18007KT 5SM -SHRA BR SCT009 BKN015 OVC025 
     FM291400 27010G20KT P6SM BKN035 
     FM292300 25007KT P6SM SCT030
       
KAPA 290542Z 2906/3006 12006KT P6SM SCT080 BKN120 
     FM290900 01009KT P6SM SCT060 BKN140 
     FM291100 VRB05KT P6SM SCT070 BKN120 
     FM291700 08008KT P6SM SCT060 BKN100 
     TEMPO 2920/2924 VRB15G30KT -TSRA BKN050CB 
     FM300000 12009KT P6SM VCSH SCT070 BKN100 
     FM300300 24005KT P6SM SCT080 BKN120
       
KAPF 290540Z 2906/3006 VRB03KT P6SM SKC 
     FM291800 27010KT P6SM FEW040 
     FM300000 VRB03KT P6SM SKC
       
KAPN 290542Z 2906/3006 15003KT 1/4SM FG VV001 
     TEMPO 2907/2910 1SM BR BKN002 
     FM291000 23005KT 4SM BR SCT250 
     FM291300 24005KT P6SM FEW250 
     FM291800 24011G21KT P6SM VCTS BKN060CB 
     FM292200 24009KT P6SM VCSH BKN060
       
KARA 290520Z 2906/3006 36010KT P6SM VCSH FEW025 BKN250 
     FM290900 VRB05KT P6SM BKN070 
     FM291500 20009KT P6SM VCTS SCT025CB 
     FM300200 VRB03KT P6SM BKN250
       
KASD 290520Z 2906/3006 00000KT P6SM BKN110 
     FM290800 32004KT P6SM VCSH BKN090 
     TEMPO 2909/2913 3SM TSRA BKN050CB 
     FM291400 23006KT P6SM BKN100 
     FM292200 23007KT P6SM VCTS BKN070CB BKN110
       
KASE 290541Z 2906/3006 21009KT P6SM SKC 
     FM291500 VRB03KT P6SM SKC 
     FM291700 36005KT P6SM FEW090 
     FM292000 33010G15KT P6SM VCSH SCT090 
     FM300200 20008KT P6SM SCT090
       
KASN 290520Z 2906/3006 22003KT P6SM BKN250 
     FM291200 22003KT P6SM VCSH BKN080 
     FM291700 25006KT P6SM VCTS BKN040CB
       
KAST 290520Z 2906/3006 25007KT P6SM OVC009 
     FM291700 24004KT P6SM OVC011 
     FM292000 29007KT P6SM OVC020
       
KATW 290520Z 2906/3006 25008KT P6SM SCT070 BKN100 
     FM291500 26016G26KT P6SM VCSH BKN040 
     FM300200 26012KT P6SM VCSH BKN035 BKN070
       
KATL 290545Z 2906/3012 24006KT P6SM FEW100 BKN250 
     FM291400 26008KT P6SM SCT035 SCT150 
     FM291800 26010KT P6SM BKN050 
     PROB30 2919/2923 4SM -TSRA BR BKN025CB 
     FM300000 24006KT P6SM VCSH SCT060 BKN120 
     FM300900 26004KT P6SM OVC025
       
KATY 290528Z 2906/3006 30008KT P6SM FEW100 
     FM291200 31014KT P6SM BKN035 
     FM291500 31019G28KT P6SM OVC040 
     FM300100 31011KT P6SM BKN060
       
KAUG 290526Z 2906/3006 19006KT 6SM BR OVC004 
     FM290900 VRB03KT 1SM BR OVC004 
     FM291400 13007KT P6SM BKN008 
     FM292000 15006KT 5SM -SHRA BR OVC008 
     FM300400 15004KT 1SM -DZ BR OVC003
       
KAUS 290526Z 2906/3012 05007KT P6SM VCSH FEW020 SCT050 OVC100 
     FM290800 05006KT P6SM VCSH BKN012 OVC035 
     FM291700 10009KT P6SM BKN035 
     FM300500 11004KT P6SM SCT015 BKN100 
     FM300900 10003KT 4SM BR BKN012
       
KAUW 290520Z 2906/3006 26007KT P6SM VCSH SCT060 BKN100 
     TEMPO 2910/2912 BKN040 
     FM291200 27010KT P6SM BKN025 OVC040 
     FM291500 27015G25KT P6SM VCSH BKN020 OVC035 
     FM300200 28010KT P6SM BKN015 OVC035
       
KAVL 290532Z 2906/3006 32004KT P6SM SCT250 
     FM291400 34008KT P6SM BKN250 
     FM291700 33007KT P6SM SCT035 BKN100 
     PROB30 2919/3001 4SM -TSRA OVC025CB 
     FM300100 29004KT P6SM BKN060
       
KAVP 290528Z 2906/3006 13004KT 6SM -SHRA BR OVC015 
     TEMPO 2909/2913 3SM -SHRA BR OVC009 
     FM291400 17006KT P6SM BKN012 OVC025 
     FM292000 17007KT P6SM -SHRA BKN025 OVC040 
     FM300100 VRB03KT P6SM FEW030 
     FM300500 00000KT P6SM BKN008
       
KAXN 290520Z 2906/3006 30013KT P6SM VCSH SCT020 BKN050 
     FM290800 30013KT P6SM BKN025 
     FM291300 30014G22KT P6SM OVC015 
     FM291500 31017G26KT P6SM VCSH OVC015 
     PROB30 2916/2920 5SM -SHRA BR OVC010 
     FM300100 31010KT P6SM BKN025 OVC050
       
KAZO 290540Z 2906/3006 22007KT P6SM SKC 
     FM291500 25014G21KT P6SM SCT250 
     FM300000 26007KT P6SM BKN250